Time;durP1;ratioP1;P1;durP2;ratioP2;P2;SDS_P1;SDS_P2;PMS_P1;PMS_P2;Temp;Humidity;BMP_temperature;BMP_pressure;BME280_temperature;BME280_humidity;BME280_pressure;Samples;Min_cycle;Max_cycle;Signal;HPM_P1;HPM_P2
2022/08/09 00:01:02;;;;;;;14.45;12.98;;;;;;;21.21;83.34;101057.87;1737154;82;20988;-93
2022/08/09 00:03:29;;;;;;;14.00;12.43;;;;;;;21.17;83.59;101055.16;1738893;82;20901;-94
2022/08/09 00:05:55;;;;;;;17.52;13.35;;;;;;;21.15;83.85;101049.64;1738793;82;21903;-94
2022/08/09 00:08:22;;;;;;;11.50;10.60;;;;;;;21.13;83.86;101056.95;1738892;81;21000;-93
2022/08/09 00:10:48;;;;;;;12.37;10.80;;;;;;;21.10;84.01;101060.77;1738932;81;20861;-94
2022/08/09 00:13:15;;;;;;;14.50;11.40;;;;;;;21.07;84.08;101053.87;1739072;81;20912;-94
2022/08/09 00:15:42;;;;;;;13.85;11.43;;;;;;;21.05;84.48;101054.52;1738817;82;20952;-95
2022/08/09 00:18:09;;;;;;;12.28;10.30;;;;;;;21.03;84.58;101055.19;1738860;81;21120;-95
2022/08/09 00:20:36;;;;;;;12.13;10.93;;;;;;;21.03;84.63;101051.66;1738781;82;20940;-94
2022/08/09 00:23:02;;;;;;;13.62;10.28;;;;;;;21.00;84.68;101056.80;1738871;81;20995;-94
2022/08/09 00:25:29;;;;;;;10.90;9.90;;;;;;;20.97;84.66;101054.44;1738862;82;20896;-93
2022/08/09 00:27:55;;;;;;;10.85;9.88;;;;;;;20.95;84.83;101054.25;1711288;82;21442;-94
2022/08/09 00:30:22;;;;;;;11.57;10.68;;;;;;;20.92;84.68;101063.39;1738846;82;21088;-94
2022/08/09 00:32:49;;;;;;;11.43;10.40;;;;;;;20.89;85.04;101058.34;1739152;82;20885;-94
2022/08/09 00:35:15;;;;;;;11.90;10.78;;;;;;;20.87;85.16;101058.48;1739042;82;21402;-91
2022/08/09 00:37:41;;;;;;;11.70;10.23;;;;;;;20.86;85.41;101064.81;1739111;82;20992;-93
2022/08/09 00:40:10;;;;;;;13.72;11.00;;;;;;;20.87;85.55;101061.14;1741016;82;20892;-94
2022/08/09 00:42:38;;;;;;;11.40;10.18;;;;;;;20.85;85.58;101067.14;1741096;82;21281;-93
2022/08/09 00:45:06;;;;;;;13.43;10.25;;;;;;;20.84;85.45;101058.78;1740637;82;20936;-92
2022/08/09 00:47:33;;;;;;;11.78;9.80;;;;;;;20.83;85.28;101062.92;1740632;82;21453;-93
2022/08/09 00:50:00;;;;;;;16.85;10.95;;;;;;;20.78;85.01;101059.38;1740447;82;20933;-92
2022/08/09 00:52:28;;;;;;;11.28;10.03;;;;;;;20.74;84.62;101055.31;1740510;82;21019;-93
2022/08/09 00:54:55;;;;;;;12.25;10.93;;;;;;;20.70;84.51;101053.95;1740462;82;21901;-93
2022/08/09 00:57:22;;;;;;;13.30;11.28;;;;;;;20.65;84.52;101057.53;1740353;82;21758;-93
2022/08/09 00:59:48;;;;;;;12.65;11.60;;;;;;;20.61;84.61;101053.02;1741084;82;20984;-93
2022/08/09 01:02:20;;;;;;;12.98;11.68;;;;;;;20.58;84.68;101056.45;1740561;82;20900;-93
2022/08/09 01:05:34;;;;;;;12.75;11.43;;;;;;;20.54;84.84;101054.53;1741163;82;21402;-91
2022/08/09 01:08:27;;;;;;;12.68;11.35;;;;;;;20.50;85.12;101050.50;1740759;82;21079;-92
2022/08/09 01:11:19;;;;;;;10.60;9.80;;;;;;;20.45;85.20;101060.27;1740879;82;21449;-93
2022/08/09 01:13:52;;;;;;;12.40;11.18;;;;;;;20.42;85.42;101061.04;1740681;82;20892;-95
2022/08/09 01:16:22;;;;;;;12.10;10.72;;;;;;;20.38;85.75;101060.98;1740394;82;20929;-92
2022/08/09 01:18:49;;;;;;;11.20;10.10;;;;;;;20.33;85.88;101058.75;1740840;82;20931;-94
2022/08/09 01:21:39;;;;;;;11.65;10.35;;;;;;;20.28;85.81;101063.19;1740781;82;21232;-93
2022/08/09 01:24:29;;;;;;;11.05;9.95;;;;;;;20.24;86.26;101060.45;1740464;82;20940;-93
2022/08/09 01:27:06;;;;;;;13.20;10.75;;;;;;;20.21;86.71;101062.09;1740824;82;21443;-92
2022/08/09 01:29:49;;;;;;;13.30;10.95;;;;;;;20.21;87.21;101063.42;1739993;82;21003;-92
2022/08/09 01:32:18;;;;;;;17.45;11.08;;;;;;;20.20;87.68;101063.05;1740825;82;20937;-93
2022/08/09 01:34:45;;;;;;;11.40;10.35;;;;;;;20.20;88.00;101067.05;1740007;82;21398;-92
2022/08/09 01:37:14;;;;;;;10.35;9.38;;;;;;;20.20;88.10;101062.22;1718460;82;20845;-91
2022/08/09 01:39:41;;;;;;;11.33;10.15;;;;;;;20.20;88.27;101061.72;1740844;81;20869;-91
2022/08/09 01:42:10;;;;;;;11.45;9.80;;;;;;;20.19;88.44;101068.05;1740772;82;20936;-92
2022/08/09 01:44:36;;;;;;;11.33;10.32;;;;;;;20.18;88.54;101070.34;1741489;82;20897;-90
2022/08/09 01:47:04;;;;;;;10.90;9.90;;;;;;;20.17;88.28;101067.84;1741395;82;21770;-90
2022/08/09 01:49:32;;;;;;;11.35;10.30;;;;;;;20.13;88.31;101066.45;1740934;82;20892;-92
2022/08/09 01:52:04;;;;;;;11.57;10.58;;;;;;;20.12;88.50;101071.41;1741390;82;20948;-90
2022/08/09 01:54:35;;;;;;;11.68;10.50;;;;;;;20.11;88.64;101068.41;1741033;82;20888;-93
2022/08/09 01:57:09;;;;;;;11.85;10.68;;;;;;;20.11;88.88;101060.42;1740879;82;20864;-93
2022/08/09 01:59:37;;;;;;;14.75;10.68;;;;;;;20.12;89.12;101065.61;1733931;82;21321;-92
2022/08/09 02:02:04;;;;;;;12.15;10.28;;;;;;;20.10;89.12;101062.25;1742064;82;20912;-94
2022/08/09 02:04:31;;;;;;;13.10;9.88;;;;;;;20.11;88.97;101068.41;1741785;82;20864;-93
2022/08/09 02:07:08;;;;;;;11.63;10.53;;;;;;;20.09;88.87;101064.05;1744757;82;20912;-94
2022/08/09 02:09:41;;;;;;;12.03;9.20;;;;;;;20.07;88.66;101064.69;1740555;82;20944;-95
2022/08/09 02:12:10;;;;;;;11.35;10.43;;;;;;;20.05;88.51;101064.48;1741101;82;21296;-94
2022/08/09 02:14:39;;;;;;;10.20;9.23;;;;;;;20.03;88.40;101061.13;1741088;82;20885;-93
2022/08/09 02:17:07;;;;;;;12.58;10.03;;;;;;;20.00;88.43;101062.25;1740654;82;20932;-93
2022/08/09 02:19:34;;;;;;;11.03;9.95;;;;;;;20.00;88.54;101070.73;1740931;82;20937;-94
2022/08/09 02:22:06;;;;;;;11.57;10.03;;;;;;;19.98;88.59;101073.53;1740937;82;20935;-93
2022/08/09 02:24:34;;;;;;;11.12;10.13;;;;;;;19.96;88.64;101078.66;1740731;82;21572;-94
2022/08/09 02:27:05;;;;;;;17.37;10.35;;;;;;;19.95;88.60;101078.31;1740264;82;20888;-93
2022/08/09 02:29:37;;;;;;;12.98;9.85;;;;;;;19.93;88.70;101071.80;1740756;82;20888;-93
2022/08/09 02:32:08;;;;;;;11.28;10.20;;;;;;;19.92;88.81;101078.59;1739520;82;21350;-93
2022/08/09 02:34:34;;;;;;;11.38;10.15;;;;;;;19.91;88.85;101082.24;1741091;82;20988;-93
2022/08/09 02:37:04;;;;;;;10.10;9.20;;;;;;;19.89;88.81;101085.03;1720105;82;21171;-94
2022/08/09 02:39:38;;;;;;;10.53;9.63;;;;;;;19.87;88.96;101086.99;1744352;82;20935;-92
2022/08/09 02:42:08;;;;;;;11.93;9.68;;;;;;;19.87;89.06;101079.01;1748887;82;20935;-93
2022/08/09 02:44:45;;;;;;;10.90;9.78;;;;;;;19.86;89.19;101086.66;1750497;81;20998;-93
2022/08/09 02:47:13;;;;;;;13.00;10.13;;;;;;;19.86;89.23;101087.98;1750292;81;21002;-92
2022/08/09 02:49:48;;;;;;;10.38;9.38;;;;;;;19.84;89.16;101088.13;1750209;81;21135;-93
2022/08/09 02:52:15;;;;;;;9.75;8.85;;;;;;;19.84;89.20;101093.45;1750468;81;20896;-93
2022/08/09 02:54:41;;;;;;;12.05;9.63;;;;;;;19.83;89.24;101085.59;1750375;81;21058;-93
2022/08/09 02:57:09;;;;;;;10.75;9.75;;;;;;;19.82;89.26;101084.76;1750246;81;20964;-94
2022/08/09 02:59:36;;;;;;;12.30;10.68;;;;;;;19.81;89.32;101091.55;1750349;81;21125;-93
2022/08/09 03:02:05;;;;;;;10.25;9.33;;;;;;;19.80;89.39;101092.05;1750244;81;21395;-93
2022/08/09 03:04:32;;;;;;;10.10;9.30;;;;;;;19.79;89.43;101093.53;1750748;81;20828;-93
2022/08/09 03:07:01;;;;;;;11.85;9.43;;;;;;;19.79;89.60;101092.20;1750564;81;20951;-92
2022/08/09 03:09:28;;;;;;;13.90;9.70;;;;;;;19.78;89.68;101095.33;1750308;81;20915;-93
2022/08/09 03:11:55;;;;;;;12.40;10.35;;;;;;;19.77;89.67;101096.83;1750866;81;20959;-93
2022/08/09 03:14:22;;;;;;;12.45;10.13;;;;;;;19.77;89.72;101102.14;1750466;81;21105;-94
2022/08/09 03:16:49;;;;;;;10.53;9.63;;;;;;;19.77;89.83;101103.48;1750366;81;20908;-92
2022/08/09 03:19:16;;;;;;;11.43;10.20;;;;;;;19.78;89.90;101109.14;1750302;81;20920;-94
2022/08/09 03:21:43;;;;;;;10.95;9.40;;;;;;;19.79;89.94;101105.52;1750592;81;20940;-94
2022/08/09 03:24:09;;;;;;;10.28;9.43;;;;;;;19.80;89.96;101109.84;1750584;81;20853;-93
2022/08/09 03:26:36;;;;;;;9.40;8.55;;;;;;;19.81;90.00;101113.70;1750682;81;21291;-94
2022/08/09 03:29:03;;;;;;;11.93;10.72;;;;;;;19.81;89.84;101128.34;1750393;81;20892;-93
2022/08/09 03:31:29;;;;;;;10.68;9.58;;;;;;;19.82;90.00;101107.88;1750619;81;20924;-92
2022/08/09 03:33:56;;;;;;;13.13;11.00;;;;;;;19.83;90.12;101108.22;1750621;81;20987;-94
2022/08/09 03:36:33;;;;;;;10.65;9.55;;;;;;;19.85;90.16;101108.92;1743709;81;20987;-86
2022/08/09 03:39:00;;;;;;;10.55;9.48;;;;;;;19.87;90.11;101122.93;1644420;83;21493;-91
2022/08/09 03:41:26;;;;;;;11.30;9.88;;;;;;;19.89;90.04;101110.33;1644858;83;20919;-92
2022/08/09 03:43:52;;;;;;;10.72;9.63;;;;;;;19.91;90.09;101115.02;1644698;83;21072;-92
2022/08/09 03:46:19;;;;;;;13.03;8.85;;;;;;;19.93;89.99;101110.40;1644687;83;20939;-91
2022/08/09 03:48:54;;;;;;;10.75;9.85;;;;;;;19.96;90.02;101109.27;1644944;83;20963;-92
2022/08/09 03:51:20;;;;;;;10.68;9.43;;;;;;;20.00;90.10;101109.34;1644650;87;21078;-92
2022/08/09 03:53:47;;;;;;;11.18;10.08;;;;;;;20.02;90.12;101110.88;1643111;87;20991;-91
2022/08/09 03:56:13;;;;;;;12.58;9.45;;;;;;;20.07;90.10;101106.45;1642654;87;20990;-92
2022/08/09 03:58:40;;;;;;;10.72;8.83;;;;;;;20.11;90.06;101108.35;1642460;87;20983;-90
2022/08/09 04:01:06;;;;;;;11.33;8.70;;;;;;;20.15;90.10;101107.92;1643057;87;20951;-93
2022/08/09 04:03:33;;;;;;;11.25;9.93;;;;;;;20.21;90.04;101101.17;1665271;85;21177;-93
2022/08/09 04:06:00;;;;;;;9.95;8.98;;;;;;;20.26;89.97;101106.44;1684275;85;20859;-92
2022/08/09 04:08:27;;;;;;;9.70;8.70;;;;;;;20.31;89.64;101100.67;1684907;85;20914;-93
2022/08/09 04:10:54;;;;;;;13.98;9.35;;;;;;;20.38;89.38;101106.27;1684312;85;20954;-91
2022/08/09 04:13:21;;;;;;;9.95;8.70;;;;;;;20.42;89.15;101107.66;1684823;85;21416;-88
2022/08/09 04:15:47;;;;;;;9.63;8.85;;;;;;;20.47;88.93;101100.90;1685109;85;21199;-92
2022/08/09 04:18:14;;;;;;;9.38;8.58;;;;;;;20.54;88.79;101100.33;1684553;85;20961;-91
2022/08/09 04:20:40;;;;;;;12.75;9.35;;;;;;;20.61;88.69;101101.45;1684314;85;20918;-92
2022/08/09 04:23:07;;;;;;;9.53;8.20;;;;;;;20.70;88.29;101100.10;1684532;85;20870;-91
2022/08/09 04:25:34;;;;;;;12.18;9.98;;;;;;;20.78;87.99;101110.02;1684078;85;20933;-93
2022/08/09 04:28:01;;;;;;;10.65;8.48;;;;;;;20.88;87.65;101103.33;1684206;85;21130;-91
2022/08/09 04:30:28;;;;;;;9.75;8.85;;;;;;;20.99;87.01;101102.30;1684509;85;20918;-92
2022/08/09 04:32:55;;;;;;;9.58;8.68;;;;;;;21.13;86.61;101101.79;1684213;85;20921;-93
2022/08/09 04:35:22;;;;;;;11.83;8.70;;;;;;;21.29;85.85;101098.46;1684743;85;20901;-94
2022/08/09 04:37:48;;;;;;;9.08;8.28;;;;;;;21.50;85.30;101103.06;1687500;84;20932;-94
2022/08/09 04:40:15;;;;;;;9.65;7.83;;;;;;;21.81;84.55;101103.16;1632641;88;21344;-94
2022/08/09 04:42:42;;;;;;;10.35;8.28;;;;;;;22.12;83.10;101100.91;1680734;85;20908;-92
2022/08/09 04:45:09;;;;;;;10.60;7.85;;;;;;;22.41;81.80;101102.47;1680677;85;20920;-92
2022/08/09 04:47:36;;;;;;;9.25;8.40;;;;;;;22.61;80.51;101104.42;1681093;85;20992;-95
2022/08/09 04:50:04;;;;;;;9.13;8.23;;;;;;;22.75;79.37;101098.50;1690620;85;21078;-94
2022/08/09 04:54:35;;;;;;;9.78;8.85;;;;;;;22.94;78.31;101096.92;1885800;75;22509;-93
2022/08/09 04:57:02;;;;;;;9.63;8.58;;;;;;;22.99;77.90;101095.09;1862442;77;20857;-92
2022/08/09 04:59:29;;;;;;;8.58;7.87;;;;;;;23.15;77.43;101096.50;1862104;76;21100;-93
2022/08/09 05:01:57;;;;;;;8.50;7.90;;;;;;;23.33;76.82;101097.72;1861855;77;20926;-89
2022/08/09 05:04:24;;;;;;;10.85;9.00;;;;;;;23.53;76.19;101095.58;1861802;76;20949;-92
2022/08/09 05:06:51;;;;;;;10.68;7.97;;;;;;;23.72;75.47;101095.78;1861504;76;21390;-95
2022/08/09 05:09:17;;;;;;;8.53;7.47;;;;;;;23.92;74.54;101098.14;1862051;76;20927;-95
2022/08/09 05:11:43;;;;;;;9.70;6.95;;;;;;;24.27;73.78;101102.30;1862183;77;21849;-93
2022/08/09 05:14:10;;;;;;;7.67;6.90;;;;;;;24.74;72.62;101102.88;1861962;77;20812;-93
2022/08/09 05:16:36;;;;;;;7.92;7.22;;;;;;;25.32;71.00;101101.30;1830969;77;20919;-95
2022/08/09 05:19:03;;;;;;;10.78;7.55;;;;;;;25.94;68.81;101102.55;1861983;76;20919;-94
2022/08/09 05:21:30;;;;;;;16.32;6.65;;;;;;;26.56;66.87;101101.47;1862193;77;20848;-93
2022/08/09 05:23:57;;;;;;;8.13;5.97;;;;;;;27.18;64.22;101102.05;1862276;77;21102;-93
2022/08/09 05:26:23;;;;;;;9.65;6.22;;;;;;;27.83;61.75;101111.03;1862099;77;21396;-92
2022/08/09 05:28:50;;;;;;;6.65;6.10;;;;;;;28.44;58.91;101113.20;1861973;77;20907;-93
2022/08/09 05:31:17;;;;;;;6.35;5.78;;;;;;;29.02;57.10;101109.67;1862168;77;21352;-91
2022/08/09 05:33:43;;;;;;;8.85;7.45;;;;;;;29.50;55.30;101097.48;1862387;77;20898;-92
2022/08/09 05:36:10;;;;;;;6.62;5.92;;;;;;;29.97;53.91;101090.78;1862239;77;21361;-93
2022/08/09 05:38:37;;;;;;;8.03;5.75;;;;;;;30.33;53.17;101095.75;1862081;77;20906;-93
2022/08/09 05:41:04;;;;;;;6.12;5.17;;;;;;;30.73;52.15;101090.76;1862283;77;20906;-93
2022/08/09 05:45:48;;;;;;;6.65;6.08;;;;;;;31.67;49.34;101096.01;1887485;74;22864;-93
2022/08/09 05:48:15;;;;;;;5.90;5.25;;;;;;;31.97;48.78;101096.72;1864089;77;20891;-92
2022/08/09 05:50:43;;;;;;;10.43;7.08;;;;;;;32.25;47.43;101094.08;1863960;77;21188;-91
2022/08/09 05:53:12;;;;;;;6.67;5.40;;;;;;;32.41;46.65;101094.84;1863116;77;21021;-93
2022/08/09 05:55:39;;;;;;;17.65;5.90;;;;;;;32.63;46.24;101088.46;1862186;76;20993;-93
2022/08/09 05:58:06;;;;;;;6.87;6.20;;;;;;;32.91;45.79;101093.34;1862184;76;20852;-90
2022/08/09 06:00:32;;;;;;;8.55;6.28;;;;;;;33.13;45.27;101087.42;1862274;76;20856;-92
2022/08/09 06:03:01;;;;;;;7.75;5.67;;;;;;;33.24;43.96;101077.15;1862313;77;21186;-95
2022/08/09 06:05:31;;;;;;;6.47;5.62;;;;;;;33.38;43.99;101077.77;1862448;77;20820;-92
2022/08/09 06:07:58;;;;;;;7.08;6.20;;;;;;;33.68;43.47;101083.17;1862168;77;20879;-93
2022/08/09 06:10:37;;;;;;;6.87;5.08;;;;;;;34.04;42.71;101078.06;1862424;77;20903;-94
2022/08/09 06:13:06;;;;;;;6.22;5.70;;;;;;;34.41;41.91;101075.08;1768432;77;20859;-93
2022/08/09 06:15:32;;;;;;;6.40;5.28;;;;;;;34.65;41.49;101074.52;1728664;83;21242;-94
2022/08/09 06:17:59;;;;;;;5.17;4.70;;;;;;;34.90;41.06;101072.01;1734875;81;20943;-93
2022/08/09 06:20:26;;;;;;;5.50;5.03;;;;;;;35.16;40.66;101077.44;1736360;82;20958;-94
2022/08/09 06:22:52;;;;;;;7.12;4.72;;;;;;;35.37;40.07;101068.25;1736266;81;21021;-95
2022/08/09 06:25:19;;;;;;;6.08;5.45;;;;;;;35.63;39.66;101061.36;1735936;82;21099;-94
2022/08/09 06:27:46;;;;;;;8.35;5.97;;;;;;;35.83;39.08;101069.04;1736231;81;21151;-93
2022/08/09 06:30:13;;;;;;;8.68;6.30;;;;;;;35.79;38.43;101061.88;1736332;82;20899;-94
2022/08/09 06:32:41;;;;;;;6.08;5.58;;;;;;;35.73;39.11;101066.14;1724249;78;21455;-93
2022/08/09 06:35:09;;;;;;;9.95;5.67;;;;;;;35.92;38.76;101064.80;1827150;77;20935;-92
2022/08/09 06:37:38;;;;;;;6.30;5.53;;;;;;;36.18;38.63;101062.48;1827415;77;20931;-93
2022/08/09 06:40:07;;;;;;;6.42;5.58;;;;;;;36.41;38.19;101070.42;1827476;77;21192;-92
2022/08/09 06:42:34;;;;;;;9.73;5.58;;;;;;;36.68;37.68;101069.69;1827136;77;20916;-93
2022/08/09 06:45:01;;;;;;;9.28;5.95;;;;;;;36.97;36.94;101076.30;1827302;77;20912;-93
2022/08/09 06:47:27;;;;;;;5.80;5.35;;;;;;;37.20;36.46;101070.55;1827048;77;20884;-94
2022/08/09 06:49:54;;;;;;;6.67;6.08;;;;;;;37.33;36.08;101066.03;1827243;77;20990;-94
2022/08/09 06:52:23;;;;;;;6.67;6.10;;;;;;;37.46;35.91;101059.27;1827025;77;21075;-95
2022/08/09 06:54:49;;;;;;;8.98;5.80;;;;;;;37.58;35.46;101055.59;1827090;77;21010;-95
2022/08/09 06:57:15;;;;;;;11.30;6.25;;;;;;;37.70;35.15;101060.31;1826429;78;20946;-95
2022/08/09 06:59:45;;;;;;;7.35;6.30;;;;;;;37.93;34.66;101055.83;1826385;78;20962;-95
2022/08/09 07:02:12;;;;;;;8.13;6.17;;;;;;;38.03;34.14;101051.52;1826665;78;20865;-93
2022/08/09 07:04:38;;;;;;;6.55;5.92;;;;;;;38.08;34.25;101056.47;1826774;78;21079;-95
2022/08/09 07:07:05;;;;;;;7.45;5.78;;;;;;;38.08;34.39;101052.91;1826550;77;20891;-94
2022/08/09 07:09:31;;;;;;;6.95;6.12;;;;;;;38.18;34.63;101060.34;1826423;77;21124;-93
2022/08/09 07:11:58;;;;;;;7.40;6.70;;;;;;;38.23;34.29;101057.10;1826555;77;20939;-92
2022/08/09 07:14:25;;;;;;;7.87;5.42;;;;;;;38.33;33.78;101055.79;1826305;78;21049;-94
2022/08/09 07:16:55;;;;;;;6.45;5.95;;;;;;;38.45;33.63;101062.41;1767996;78;21073;-95
2022/08/09 07:19:22;;;;;;;8.80;7.00;;;;;;;38.69;33.33;101057.87;1701881;83;21171;-96
2022/08/09 07:21:50;;;;;;;10.58;7.03;;;;;;;38.82;32.44;101055.98;1732829;81;20880;-94
2022/08/09 07:24:17;;;;;;;9.40;7.80;;;;;;;38.85;32.96;101049.12;1732635;82;21045;-93
2022/08/09 07:26:45;;;;;;;8.38;5.97;;;;;;;38.92;32.80;101050.50;1701000;84;20911;-95
2022/08/09 07:29:12;;;;;;;10.10;7.55;;;;;;;38.89;32.85;101053.80;1731827;83;21127;-93
2022/08/09 07:31:39;;;;;;;9.75;6.30;;;;;;;38.93;32.33;101054.94;1732113;83;20891;-96
2022/08/09 07:34:07;;;;;;;6.47;5.97;;;;;;;38.97;32.56;101057.39;1701699;84;20879;-94
2022/08/09 07:36:35;;;;;;;8.78;7.90;;;;;;;39.13;32.65;101053.30;1731833;83;20927;-93
2022/08/09 07:39:03;;;;;;;8.43;7.25;;;;;;;39.23;32.13;101057.43;1701164;84;20922;-92
2022/08/09 07:41:30;;;;;;;6.28;5.83;;;;;;;39.27;31.47;101050.86;1731298;82;21160;-93
2022/08/09 07:44:04;;;;;;;11.22;6.80;;;;;;;39.28;31.66;101056.61;1731339;82;21010;-95
2022/08/09 07:46:30;;;;;;;8.05;6.80;;;;;;;39.30;30.64;101063.47;1731223;83;20985;-93
2022/08/09 07:49:00;;;;;;;7.20;6.55;;;;;;;39.32;31.03;101052.22;1711239;83;21018;-94
2022/08/09 07:51:27;;;;;;;7.05;6.35;;;;;;;39.48;30.03;101058.56;1700377;83;21030;-92
2022/08/09 07:53:54;;;;;;;9.83;7.72;;;;;;;39.55;29.78;101055.80;1731997;83;21085;-93
2022/08/09 07:56:21;;;;;;;9.33;5.70;;;;;;;39.63;29.93;101053.61;1731657;83;20895;-93
2022/08/09 07:58:48;;;;;;;6.80;5.05;;;;;;;39.77;29.21;101050.00;1731978;83;20998;-94
2022/08/09 08:01:14;;;;;;;9.53;5.60;;;;;;;39.87;28.44;101053.33;1701354;84;20935;-94
2022/08/09 08:03:41;;;;;;;8.55;5.30;;;;;;;39.99;28.20;101052.45;1732363;83;20923;-96
2022/08/09 08:06:08;;;;;;;8.05;5.17;;;;;;;40.00;27.87;101051.92;1701558;83;21161;-95
2022/08/09 08:08:34;;;;;;;10.08;5.70;;;;;;;40.03;27.94;101049.98;1731911;83;20859;-94
2022/08/09 08:11:03;;;;;;;7.62;4.37;;;;;;;40.12;27.90;101055.17;1731435;82;20891;-96
2022/08/09 08:13:31;;;;;;;7.15;4.80;;;;;;;40.22;27.49;101057.61;1731708;83;20987;-95
2022/08/09 08:16:01;;;;;;;10.10;4.50;;;;;;;40.43;27.57;101055.64;1701018;83;21092;-93
2022/08/09 08:18:31;;;;;;;8.85;4.80;;;;;;;40.63;26.80;101051.97;1729802;81;21152;-93
2022/08/09 08:20:58;;;;;;;10.78;5.35;;;;;;;40.85;26.74;101050.22;1724804;82;20958;-92
2022/08/09 08:23:25;;;;;;;6.35;3.90;;;;;;;41.09;26.02;101048.39;1724750;83;20939;-92
2022/08/09 08:25:51;;;;;;;5.45;4.58;;;;;;;41.19;25.91;101042.81;1724954;82;20935;-93
2022/08/09 08:28:19;;;;;;;7.90;4.75;;;;;;;41.32;25.37;101050.98;1724947;82;20986;-93
2022/08/09 08:30:46;;;;;;;5.90;4.00;;;;;;;41.42;24.83;101045.39;1724886;83;21139;-92
2022/08/09 08:33:13;;;;;;;6.10;4.40;;;;;;;41.49;25.22;101046.43;1724838;83;20900;-93
2022/08/09 08:35:40;;;;;;;10.15;5.12;;;;;;;41.46;25.20;101041.48;1724936;82;20974;-94
2022/08/09 08:38:06;;;;;;;4.55;4.15;;;;;;;41.53;24.96;101037.83;1724873;83;20852;-92
2022/08/09 08:40:35;;;;;;;7.53;6.03;;;;;;;41.73;24.72;101038.20;1725944;82;20969;-92
2022/08/09 08:43:03;;;;;;;8.55;3.83;;;;;;;41.73;24.98;101034.08;1725877;83;21119;-94
2022/08/09 08:45:34;;;;;;;12.50;4.80;;;;;;;41.69;25.46;101034.42;1725487;82;21034;-93
2022/08/09 08:48:01;;;;;;;11.28;4.30;;;;;;;41.83;25.70;101033.16;1724878;83;20967;-92
2022/08/09 08:50:28;;;;;;;12.35;6.22;;;;;;;42.04;25.66;101032.39;1723827;83;20975;-93
2022/08/09 08:52:54;;;;;;;14.18;11.28;;;;;;;42.18;24.75;101029.20;1724116;83;20872;-91
2022/08/09 08:55:21;;;;;;;5.03;4.42;;;;;;;42.14;24.15;101030.09;1724373;83;21232;-94
2022/08/09 08:57:48;;;;;;;4.67;4.25;;;;;;;41.99;23.75;101025.00;1723971;82;20919;-93
2022/08/09 09:00:15;;;;;;;5.42;4.33;;;;;;;42.03;24.31;101021.93;1723797;82;20887;-94
2022/08/09 09:02:43;;;;;;;10.35;5.20;;;;;;;42.18;24.47;101020.93;1724327;82;20924;-92
2022/08/09 09:05:11;;;;;;;5.80;4.45;;;;;;;42.39;24.11;101015.95;1724390;83;20955;-93
2022/08/09 09:07:39;;;;;;;11.78;5.45;;;;;;;42.55;24.05;101019.91;1724311;83;21191;-92
2022/08/09 09:10:08;;;;;;;4.95;4.40;;;;;;;42.65;23.72;101010.92;1675038;83;20895;-94
2022/08/09 09:12:34;;;;;;;6.92;4.97;;;;;;;42.72;23.90;101016.63;1724276;83;20947;-95
2022/08/09 09:15:01;;;;;;;7.58;3.83;;;;;;;42.85;23.79;101015.91;1698177;83;21418;-94
2022/08/09 09:17:28;;;;;;;6.67;4.22;;;;;;;42.93;23.50;101015.77;1724027;82;20987;-92
2022/08/09 09:19:57;;;;;;;6.47;3.72;;;;;;;42.95;23.12;101014.91;1724177;82;21954;-94
2022/08/09 09:22:24;;;;;;;5.05;4.70;;;;;;;43.03;22.87;101008.72;1723783;82;20891;-93
2022/08/09 09:24:55;;;;;;;9.05;4.17;;;;;;;43.11;22.97;101014.09;1723664;83;21433;-93
2022/08/09 09:27:25;;;;;;;3.72;3.42;;;;;;;43.05;22.42;101016.14;1724073;83;20947;-94
2022/08/09 09:29:53;;;;;;;4.97;4.42;;;;;;;42.95;22.69;101003.88;1724286;83;21379;-92
2022/08/09 09:32:23;;;;;;;8.83;4.25;;;;;;;42.92;22.57;101005.87;1724404;83;21264;-95
2022/08/09 09:35:06;;;;;;;5.12;3.40;;;;;;;42.83;22.62;101005.73;1723850;82;20924;-93
2022/08/09 09:37:37;;;;;;;7.25;3.17;;;;;;;42.77;22.21;100997.23;1724049;83;20900;-92
2022/08/09 09:40:05;;;;;;;6.70;3.25;;;;;;;42.76;21.81;100995.61;1723836;82;20889;-92
2022/08/09 09:42:32;;;;;;;4.20;3.40;;;;;;;42.74;21.72;100991.76;1723937;83;21311;-94
2022/08/09 09:45:03;;;;;;;5.65;3.20;;;;;;;42.74;21.69;100990.38;1724185;82;21229;-93
2022/08/09 09:47:30;;;;;;;;;;;;;;;42.74;21.70;100992.33;1726461;83;20987;-93
2022/08/09 09:49:58;;;;;;;7.62;3.77;;;;;;;42.77;21.99;100989.77;1723840;82;20129;-92
2022/08/09 09:52:26;;;;;;;8.35;3.80;;;;;;;42.64;21.75;100983.06;1723557;83;20896;-91
2022/08/09 09:55:03;;;;;;;5.53;3.27;;;;;;;42.73;22.06;100979.63;1724540;83;21361;-94
2022/08/09 09:57:33;;;;;;;6.12;3.40;;;;;;;42.85;21.71;100983.61;1723824;82;21326;-95
2022/08/09 09:59:59;;;;;;;7.30;3.30;;;;;;;43.06;21.29;100984.64;1723605;82;20959;-94
2022/08/09 10:02:28;;;;;;;9.73;3.65;;;;;;;43.11;21.11;100981.78;1723858;83;20868;-94
2022/08/09 10:05:07;;;;;;;7.37;3.47;;;;;;;43.16;21.07;100978.14;1723799;82;20919;-95
2022/08/09 10:07:35;;;;;;;4.20;3.65;;;;;;;43.27;20.85;100982.38;1723469;83;20869;-94
2022/08/09 10:10:02;;;;;;;5.78;3.30;;;;;;;43.27;20.39;100978.24;1724172;82;20922;-95
2022/08/09 10:12:35;;;;;;;3.33;3.02;;;;;;;43.25;20.61;100983.25;1723487;82;20911;-93
2022/08/09 10:15:13;;;;;;;3.35;3.05;;;;;;;43.25;19.81;100981.30;1723975;83;20919;-92
2022/08/09 10:17:40;;;;;;;5.03;3.70;;;;;;;43.27;20.02;100981.00;1723804;83;20990;-94
2022/08/09 10:20:24;;;;;;;3.60;3.30;;;;;;;43.24;20.21;100976.88;1723798;83;20900;-93
2022/08/09 10:22:54;;;;;;;8.83;7.92;;;;;;;43.25;20.38;100973.58;1723862;83;21296;-92
2022/08/09 10:25:24;;;;;;;14.78;10.93;;;;;;;43.30;20.50;100981.77;1723500;82;21136;-89
2022/08/09 10:27:53;;;;;;;10.48;9.40;;;;;;;43.41;19.96;100983.78;1724273;82;20920;-90
2022/08/09 10:30:20;;;;;;;5.30;4.20;;;;;;;43.52;19.64;100976.13;1724292;83;20939;-93
2022/08/09 10:32:50;;;;;;;4.45;2.55;;;;;;;43.49;19.49;100978.09;1724728;83;20923;-93
2022/08/09 10:35:18;;;;;;;6.80;6.03;;;;;;;43.48;19.26;100984.19;1698493;83;21334;-91
2022/08/09 10:37:44;;;;;;;9.28;3.58;;;;;;;43.52;19.22;100974.75;1724319;83;20869;-91
2022/08/09 10:40:11;;;;;;;7.97;6.53;;;;;;;43.42;19.43;100981.27;1697790;83;20947;-91
2022/08/09 10:42:38;;;;;;;3.90;3.08;;;;;;;43.38;19.99;100983.83;1724344;82;20959;-91
2022/08/09 10:45:08;;;;;;;131.32;121.50;;;;;;;43.34;19.41;100974.52;1724635;83;20907;-91
2022/08/09 10:47:46;;;;;;;9.15;8.35;;;;;;;43.37;19.75;100970.32;1724520;83;20883;-92
2022/08/09 10:50:22;;;;;;;7.37;3.85;;;;;;;43.38;19.23;100972.78;1724068;82;20939;-93
2022/08/09 10:53:06;;;;;;;6.05;3.05;;;;;;;43.40;19.35;100963.64;1724149;83;20951;-92
2022/08/09 10:55:34;;;;;;;7.30;4.55;;;;;;;43.46;19.22;100962.96;1724189;83;20880;-92
2022/08/09 10:58:01;;;;;;;5.65;3.35;;;;;;;43.55;19.81;100960.31;1723932;82;20973;-91
2022/08/09 11:00:33;;;;;;;6.35;3.67;;;;;;;43.53;19.57;100963.37;1674183;83;21246;-93
2022/08/09 11:02:59;;;;;;;;;;;;;;;43.42;20.10;100954.45;1726534;83;20947;-91
2022/08/09 11:05:26;;;;;;;10.93;7.22;;;;;;;43.35;20.18;100956.00;1724261;83;20093;-91
2022/08/09 11:07:55;;;;;;;9.18;7.22;;;;;;;43.19;21.02;100959.00;1724024;83;20900;-90
2022/08/09 11:10:44;;;;;;;3.95;3.40;;;;;;;43.14;21.07;100963.25;1723507;83;20943;-91
2022/08/09 11:13:18;;;;;;;5.65;2.87;;;;;;;43.07;19.81;100957.31;1720806;83;20967;-93
2022/08/09 11:15:45;;;;;;;6.08;2.70;;;;;;;42.95;19.68;100950.05;1724101;82;20904;-93
2022/08/09 11:18:44;;;;;;;7.00;6.33;;;;;;;42.95;19.90;100943.97;1727359;83;20919;-89
2022/08/09 11:21:50;;;;;;;10.13;8.38;;;;;;;42.98;19.61;100943.92;1730864;82;21420;-92
2022/08/09 11:24:18;;;;;;;6.30;4.45;;;;;;;42.96;19.56;100949.77;1730716;82;21026;-93
2022/08/09 11:26:49;;;;;;;4.28;2.77;;;;;;;42.78;19.32;100951.41;1730235;83;21087;-92
2022/08/09 11:29:52;;;;;;;5.42;3.20;;;;;;;42.69;19.39;100947.70;1730779;82;20967;-92
2022/08/09 11:32:51;;;;;;;5.65;2.42;;;;;;;42.57;19.12;100944.58;1731192;83;20951;-92